createdAt,value
2018-01-24T00:00:41.417Z,94.65
2018-01-24T00:01:51.581Z,94.65
2018-01-24T00:03:01.725Z,95.08
2018-01-24T00:04:11.939Z,94.74
2018-01-24T00:05:22.124Z,94.93
2018-01-24T00:06:32.299Z,94.98
2018-01-24T00:07:42.511Z,94.7
2018-01-24T00:08:52.730Z,94.6
2018-01-24T00:10:02.705Z,94.42
2018-01-24T00:11:12.852Z,94.32
2018-01-24T00:12:22.977Z,94.56
2018-01-24T00:13:33.143Z,94.79
2018-01-24T00:14:43.353Z,94.79
2018-01-24T00:15:53.621Z,94.79
2018-01-24T00:17:03.789Z,94.79
2018-01-24T00:18:13.922Z,94.79
2018-01-24T00:19:23.801Z,94.7
2018-01-24T00:20:33.984Z,94.79
2018-01-24T00:21:44.164Z,94.79
2018-01-24T00:22:54.029Z,94.6
2018-01-24T00:24:04.159Z,94.42
2018-01-24T00:25:15.019Z,94.98
2018-01-24T00:26:25.169Z,94.6
2018-01-24T00:27:35.317Z,94.6
2018-01-24T00:28:45.470Z,94.42
2018-01-24T00:29:55.703Z,94.6
2018-01-24T00:31:05.883Z,94.03
2018-01-24T00:32:16.085Z,94.6
2018-01-24T00:33:26.328Z,94.6
2018-01-24T00:34:36.620Z,94.7
2018-01-24T00:35:46.505Z,94.89
2018-01-24T00:36:56.657Z,94.7
2018-01-24T00:38:06.892Z,94.89
2018-01-24T00:39:17.062Z,94.79
2018-01-24T00:40:26.894Z,94.6
2018-01-24T00:41:37.061Z,94.6
2018-01-24T00:42:47.197Z,94.89
2018-01-24T00:43:57.316Z,94.79
2018-01-24T00:45:07.644Z,94.89
2018-01-24T00:46:17.811Z,94.6
2018-01-24T00:47:27.974Z,94.79
2018-01-24T00:48:38.226Z,94.98
2018-01-24T00:49:48.370Z,94.6
2018-01-24T00:50:58.688Z,94.13
2018-01-24T00:52:08.930Z,94.13
2018-01-24T00:53:19.138Z,94.32
2018-01-24T00:54:29.319Z,94.03
2018-01-24T00:55:39.445Z,94.32
2018-01-24T00:56:49.611Z,94.03
2018-01-24T00:57:59.724Z,94.51
2018-01-24T00:59:09.890Z,93.75
2018-01-24T01:00:20.034Z,93.75
2018-01-24T01:01:30.233Z,93.94
2018-01-24T01:02:40.390Z,93.75
2018-01-24T01:03:50.504Z,94.22
2018-01-24T01:05:00.640Z,93.94
2018-01-24T01:06:10.534Z,94.22
2018-01-24T01:07:20.661Z,94.03
2018-01-24T01:08:30.779Z,93.94
2018-01-24T01:09:40.899Z,94.32
2018-01-24T01:10:51.077Z,93.27
2018-01-24T01:12:01.352Z,93.55
2018-01-24T01:13:11.229Z,93.55
2018-01-24T01:14:21.131Z,93.37
2018-01-24T01:15:31.276Z,93.27
2018-01-24T01:16:41.397Z,93.37
2018-01-24T01:17:51.516Z,93.37
2018-01-24T01:19:01.723Z,93.27
2018-01-24T01:20:11.864Z,93.55
2018-01-24T01:21:22.050Z,93.27
2018-01-24T01:22:32.212Z,93.08
2018-01-24T01:23:42.396Z,93.37
2018-01-24T01:24:52.606Z,93.37
2018-01-24T01:26:02.732Z,93.55
2018-01-24T01:27:12.878Z,93.18
2018-01-24T01:28:22.677Z,93.37
2018-01-24T01:29:32.817Z,93.37
2018-01-24T01:30:42.968Z,93.37
2018-01-24T01:31:53.158Z,93.27
2018-01-24T01:33:03.406Z,93.37
2018-01-24T01:34:13.668Z,93.08
2018-01-24T01:35:24.117Z,93.37
2018-01-24T01:36:34.268Z,93.37
2018-01-24T01:37:44.404Z,93.46
2018-01-24T01:38:54.271Z,93.37
2018-01-24T01:40:04.421Z,93.55
2018-01-24T01:41:14.559Z,93.37
2018-01-24T01:42:24.713Z,93.37
2018-01-24T01:43:34.867Z,93.27
2018-01-24T01:44:44.989Z,93.18
2018-01-24T01:45:55.143Z,93.46
2018-01-24T01:47:05.278Z,93.55
2018-01-24T01:48:15.413Z,93.27
2018-01-24T01:49:25.554Z,93.27
2018-01-24T01:50:35.728Z,93.37
2018-01-24T01:51:45.943Z,93.37
2018-01-24T01:52:56.068Z,93.37
2018-01-24T01:54:06.181Z,93.55
2018-01-24T01:55:16.301Z,93.55
2018-01-24T01:56:26.410Z,93.46
2018-01-24T01:57:36.607Z,93.37
2018-01-24T01:58:46.731Z,93.37
2018-01-24T01:59:56.994Z,93.08
2018-01-24T02:01:07.113Z,93.27
2018-01-24T02:02:17.225Z,93.27
2018-01-24T02:03:27.346Z,93.37
2018-01-24T02:04:37.460Z,93.37
2018-01-24T02:05:47.689Z,93.37
2018-01-24T02:06:57.864Z,93.08
2018-01-24T02:08:08.075Z,93.08
2018-01-24T02:09:18.219Z,93.08
2018-01-24T02:10:28.485Z,93.27
2018-01-24T02:11:38.731Z,93.27
2018-01-24T02:12:48.951Z,93.46
2018-01-24T02:13:59.119Z,93.37
2018-01-24T02:15:09.426Z,93.46
2018-01-24T02:16:19.279Z,93.37
2018-01-24T02:17:29.394Z,93.46
2018-01-24T02:18:39.492Z,92.89
2018-01-24T02:19:49.624Z,93.55
2018-01-24T02:20:59.576Z,93.55
2018-01-24T02:22:09.751Z,93.84
2018-01-24T02:23:20.021Z,94.03
2018-01-24T02:24:30.170Z,93.94
2018-01-24T02:25:40.133Z,94.13
2018-01-24T02:26:50.257Z,94.7
2018-01-24T02:28:00.453Z,94.6
2018-01-24T02:29:10.686Z,94.98
2018-01-24T02:30:20.888Z,94.42
2018-01-24T02:31:31.052Z,94.79
2018-01-24T02:32:41.284Z,95.17
2018-01-24T02:33:51.415Z,95.08
2018-01-24T02:35:01.533Z,94.7
2018-01-24T02:36:11.665Z,94.79
2018-01-24T02:37:21.782Z,94.7
2018-01-24T02:38:31.976Z,95.65
2018-01-24T02:39:42.179Z,95.84
2018-01-24T02:40:52.316Z,95.46
2018-01-24T02:42:02.538Z,95.65
2018-01-24T02:43:12.691Z,95.84
2018-01-24T02:44:22.611Z,95.94
2018-01-24T02:45:32.751Z,96.12
2018-01-24T02:46:42.872Z,95.08
2018-01-24T02:47:52.754Z,96.12
2018-01-24T02:49:02.627Z,95.94
2018-01-24T02:50:12.736Z,95.84
2018-01-24T02:51:22.857Z,95.56
2018-01-24T02:52:33.092Z,95.46
2018-01-24T02:53:43.283Z,95.94
2018-01-24T02:54:53.397Z,96.03
2018-01-24T02:56:03.541Z,95.36
2018-01-24T02:57:13.712Z,95.65
2018-01-24T02:58:23.821Z,95.65
2018-01-24T02:59:34.045Z,95.84
2018-01-24T03:00:44.178Z,95.65
2018-01-24T03:01:54.273Z,95.84
2018-01-24T03:03:04.455Z,95.84
2018-01-24T03:04:14.588Z,95.75
2018-01-24T03:05:24.700Z,96.03
2018-01-24T03:06:34.853Z,95.65
2018-01-24T03:07:45.019Z,95.56
2018-01-24T03:08:55.176Z,95.75
2018-01-24T03:10:05.399Z,95.75
2018-01-24T03:11:15.544Z,95.46
2018-01-24T03:12:25.743Z,95.46
2018-01-24T03:13:35.921Z,95.65
2018-01-24T03:14:46.035Z,95.17
2018-01-24T03:15:56.182Z,95.56
2018-01-24T03:17:06.296Z,95.65
2018-01-24T03:18:16.494Z,95.46
2018-01-24T03:19:26.649Z,95.46
2018-01-24T03:20:36.770Z,94.89
2018-01-24T03:21:46.899Z,95.08
2018-01-24T03:22:57.062Z,94.79
2018-01-24T03:24:07.222Z,95.08
2018-01-24T03:25:17.347Z,95.08
2018-01-24T03:26:27.231Z,94.6
2018-01-24T03:27:37.364Z,94.6
2018-01-24T03:28:47.494Z,94.84
2018-01-24T03:29:57.848Z,94.89
2018-01-24T03:31:08.051Z,94.98
2018-01-24T03:32:18.215Z,94.79
2018-01-24T03:33:28.419Z,94.84
2018-01-24T03:34:38.547Z,94.46
2018-01-24T03:35:48.422Z,94.74
2018-01-24T03:36:58.666Z,94.74
2018-01-24T03:38:08.815Z,94.65
2018-01-24T03:39:18.652Z,94.65
2018-01-24T03:40:28.780Z,94.84
2018-01-24T03:41:38.960Z,94.84
2018-01-24T03:42:49.232Z,94.93
2018-01-24T03:43:59.431Z,95.12
2018-01-24T03:45:09.760Z,94.65
2018-01-24T03:46:19.941Z,94.56
2018-01-24T03:47:30.144Z,94.46
2018-01-24T03:48:40.508Z,94.46
2018-01-24T03:49:50.393Z,94.56
2018-01-24T03:51:00.529Z,94.93
2018-01-24T03:52:10.632Z,94.65
2018-01-24T03:53:20.815Z,94.46
2018-01-24T03:54:30.969Z,94.46
2018-01-24T03:55:41.095Z,94.65
2018-01-24T03:56:51.274Z,94.46
2018-01-24T03:58:01.402Z,94.93
2018-01-24T03:59:11.028Z,95.03
2018-01-24T04:00:21.180Z,94.93
2018-01-24T04:01:31.331Z,94.74
2018-01-24T04:02:41.541Z,94.84
2018-01-24T04:03:51.668Z,94.84
2018-01-24T04:05:01.548Z,94.84
2018-01-24T04:06:11.716Z,94.74
2018-01-24T04:07:22.036Z,94.65
2018-01-24T04:08:32.226Z,94.56
2018-01-24T04:09:42.410Z,94.65
2018-01-24T04:10:52.591Z,94.46
2018-01-24T04:12:02.816Z,94.84
2018-01-24T04:13:12.966Z,94.84
2018-01-24T04:14:22.853Z,94.65
2018-01-24T04:15:33.051Z,94.56
2018-01-24T04:16:43.174Z,94.74
2018-01-24T04:17:53.311Z,94.56
2018-01-24T04:19:03.578Z,94.65
2018-01-24T04:20:13.459Z,94.65
2018-01-24T04:21:23.596Z,94.84
2018-01-24T04:22:33.879Z,94.65
2018-01-24T04:23:43.762Z,94.37
2018-01-24T04:24:53.882Z,94.74
2018-01-24T04:26:04.027Z,94.37
2018-01-24T04:27:14.180Z,94.84
2018-01-24T04:28:24.425Z,94.37
2018-01-24T04:29:34.650Z,94.84
2018-01-24T04:30:44.861Z,94.84
2018-01-24T04:31:55.055Z,94.93
2018-01-24T04:33:05.207Z,94.65
2018-01-24T04:34:15.332Z,95.12
2018-01-24T04:35:25.469Z,94.74
2018-01-24T04:36:35.595Z,94.74
2018-01-24T04:37:45.882Z,94.56
2018-01-24T04:38:56.038Z,94.84
2018-01-24T04:40:06.248Z,95.03
2018-01-24T04:41:16.470Z,94.84
2018-01-24T04:42:26.686Z,94.93
2018-01-24T04:43:36.796Z,95.03
2018-01-24T04:44:47.017Z,94.74
2018-01-24T04:45:57.199Z,94.93
2018-01-24T04:47:07.451Z,94.93
2018-01-24T04:48:17.588Z,94.93
2018-01-24T04:49:27.680Z,94.65
2018-01-24T04:50:37.819Z,94.65
2018-01-24T04:51:47.925Z,94.65
2018-01-24T04:52:57.820Z,95.41
2018-01-24T04:54:08.257Z,95.12
2018-01-24T04:55:18.622Z,95.12
2018-01-24T04:56:28.763Z,94.84
2018-01-24T04:57:39.001Z,95.12
2018-01-24T04:58:49.122Z,95.6
2018-01-24T04:59:59.231Z,95.51
2018-01-24T05:01:09.344Z,95.7
2018-01-24T05:02:19.481Z,95.7
2018-01-24T05:03:29.723Z,95.7
2018-01-24T05:04:39.927Z,95.7
2018-01-24T05:05:50.167Z,95.41
2018-01-24T05:07:00.009Z,95.32
2018-01-24T05:08:10.156Z,95.32
2018-01-24T05:09:20.272Z,95.51
2018-01-24T05:10:30.423Z,95.51
2018-01-24T05:11:40.596Z,95.41
2018-01-24T05:12:50.845Z,95.79
2018-01-24T05:14:00.969Z,95.7
2018-01-24T05:15:12.135Z,95.89
2018-01-24T05:16:22.278Z,95.98
2018-01-24T05:17:32.465Z,95.7
2018-01-24T05:18:42.638Z,95.03
2018-01-24T05:19:52.779Z,95.12
2018-01-24T05:21:02.947Z,95.7
2018-01-24T05:22:13.151Z,95.89
2018-01-24T05:23:23.415Z,95.7
2018-01-24T05:24:33.666Z,95.32
2018-01-24T05:25:43.946Z,95.32
2018-01-24T05:26:54.237Z,95.41
2018-01-24T05:28:04.394Z,96.08
2018-01-24T05:29:14.556Z,96.08
2018-01-24T05:30:24.747Z,96.08
2018-01-24T05:31:34.950Z,95.98
2018-01-24T05:32:45.144Z,95.7
2018-01-24T05:33:55.404Z,96.08
2018-01-24T05:35:05.332Z,95.7
2018-01-24T05:36:15.444Z,95.98
2018-01-24T05:37:25.205Z,95.7
2018-01-24T05:38:35.344Z,95.79
2018-01-24T05:39:45.601Z,95.98
2018-01-24T05:40:55.754Z,95.51
2018-01-24T05:42:06.054Z,96.08
2018-01-24T05:43:16.274Z,95.79
2018-01-24T05:44:26.503Z,95.98
2018-01-24T05:45:36.668Z,96.08
2018-01-24T05:46:46.791Z,95.79
2018-01-24T05:47:56.931Z,95.89
2018-01-24T05:49:07.060Z,95.79
2018-01-24T05:50:17.189Z,95.79
2018-01-24T05:51:27.369Z,96.17
2018-01-24T05:52:37.622Z,95.7
2018-01-24T05:53:47.723Z,95.98
2018-01-24T05:54:57.865Z,96.17
2018-01-24T05:56:07.981Z,96.17
2018-01-24T05:57:18.118Z,95.89
2018-01-24T05:58:28.256Z,95.98
2018-01-24T05:59:38.402Z,95.89
2018-01-24T06:00:48.605Z,95.89
2018-01-24T06:01:58.801Z,95.89
2018-01-24T06:03:08.965Z,95.79
2018-01-24T06:04:18.919Z,96.08
2018-01-24T06:05:29.054Z,95.98
2018-01-24T06:06:39.184Z,96.12
2018-01-24T06:07:49.397Z,95.84
2018-01-24T06:08:59.619Z,95.89
2018-01-24T06:10:10.061Z,96.22
2018-01-24T06:11:20.236Z,96.03
2018-01-24T06:12:30.365Z,96.03
2018-01-24T06:13:40.525Z,96.03
2018-01-24T06:14:50.763Z,96.17
2018-01-24T06:16:00.966Z,95.56
2018-01-24T06:17:11.148Z,95.46
2018-01-24T06:18:21.441Z,95.56
2018-01-24T06:19:31.596Z,95.65
2018-01-24T06:20:42.018Z,95.46
2018-01-24T06:21:52.168Z,95.65
2018-01-24T06:23:02.318Z,96.41
2018-01-24T06:24:12.575Z,95.65
2018-01-24T06:25:22.811Z,95.84
2018-01-24T06:26:32.759Z,95.56
2018-01-24T06:27:42.853Z,95.46
2018-01-24T06:28:52.981Z,95.65
2018-01-24T06:30:03.198Z,95.56
2018-01-24T06:31:13.363Z,95.56
2018-01-24T06:32:23.565Z,95.65
2018-01-24T06:33:33.719Z,96.51
2018-01-24T06:34:43.858Z,96.41
2018-01-24T06:35:53.978Z,95.46
2018-01-24T06:37:03.948Z,95.75
2018-01-24T06:38:14.083Z,95.46
2018-01-24T06:39:24.213Z,95.46
2018-01-24T06:40:34.319Z,95.56
2018-01-24T06:41:44.464Z,95.65
2018-01-24T06:42:54.632Z,95.36
2018-01-24T06:44:04.853Z,95.75
2018-01-24T06:45:14.797Z,96.03
2018-01-24T06:46:24.930Z,95.46
2018-01-24T06:47:35.073Z,96.03
2018-01-24T06:48:45.317Z,95.17
2018-01-24T06:49:55.480Z,95.65
2018-01-24T06:51:05.642Z,95.84
2018-01-24T06:52:15.841Z,95.36
2018-01-24T06:53:25.974Z,95.94
2018-01-24T06:54:36.097Z,95.84
2018-01-24T06:55:46.285Z,95.36
2018-01-24T06:56:56.437Z,95.75
2018-01-24T06:58:06.616Z,95.75
2018-01-24T06:59:16.766Z,95.36
2018-01-24T07:00:26.905Z,95.56
2018-01-24T07:01:37.156Z,95.46
2018-01-24T07:02:47.277Z,95.36
2018-01-24T07:03:56.867Z,95.46
2018-01-24T07:05:06.988Z,95.36
2018-01-24T07:06:17.117Z,95.36
2018-01-24T07:07:27.350Z,95.46
2018-01-24T07:08:37.504Z,95.27
2018-01-24T07:09:47.804Z,95.27
2018-01-24T07:10:58.051Z,95.56
2018-01-24T07:12:08.322Z,95.56
2018-01-24T07:13:18.584Z,95.36
2018-01-24T07:14:28.755Z,95.75
2018-01-24T07:15:38.879Z,95.36
2018-01-24T07:16:49.143Z,95.84
2018-01-24T07:17:59.309Z,95.94
2018-01-24T07:19:09.710Z,95.56
2018-01-24T07:20:19.583Z,95.56
2018-01-24T07:21:29.687Z,95.65
2018-01-24T07:22:39.926Z,96.03
2018-01-24T07:23:50.050Z,95.94
2018-01-24T07:25:00.170Z,95.75
2018-01-24T07:26:10.296Z,95.56
2018-01-24T07:27:20.477Z,95.56
2018-01-24T07:28:30.607Z,95.84
2018-01-24T07:29:40.717Z,95.75
2018-01-24T07:30:50.609Z,95.27
2018-01-24T07:32:00.746Z,96.12
2018-01-24T07:33:10.603Z,95.36
2018-01-24T07:34:20.706Z,95.56
2018-01-24T07:35:30.876Z,95.75
2018-01-24T07:36:41.086Z,96.03
2018-01-24T07:37:51.246Z,95.75
2018-01-24T07:39:01.157Z,95.65
2018-01-24T07:40:11.271Z,95.94
2018-01-24T07:41:21.392Z,95.94
2018-01-24T07:42:31.535Z,95.94
2018-01-24T07:43:41.749Z,95.27
2018-01-24T07:44:51.655Z,95.7
2018-01-24T07:46:01.786Z,95.27
2018-01-24T07:47:12.976Z,95.6
2018-01-24T07:48:22.891Z,95.51
2018-01-24T07:49:32.851Z,95.98
2018-01-24T07:50:42.756Z,95.32
2018-01-24T07:51:52.921Z,95.22
2018-01-24T07:53:03.090Z,95.51
2018-01-24T07:54:13.280Z,95.79
2018-01-24T07:55:23.409Z,95.41
2018-01-24T07:56:33.571Z,95.32
2018-01-24T07:57:43.690Z,95.03
2018-01-24T07:58:53.831Z,94.74
2018-01-24T08:00:03.959Z,94.93
2018-01-24T08:01:13.833Z,94.93
2018-01-24T08:02:23.951Z,95.03
2018-01-24T08:03:34.130Z,94.84
2018-01-24T08:04:44.360Z,95.03
2018-01-24T08:05:54.650Z,94.93
2018-01-24T08:07:04.840Z,94.56
2018-01-24T08:08:14.987Z,93.89
2018-01-24T08:09:25.145Z,94.08
2018-01-24T08:10:35.409Z,94.08
2018-01-24T08:11:45.566Z,94.32
2018-01-24T08:12:55.818Z,93.93
2018-01-24T08:14:06.184Z,94.03
2018-01-24T08:15:16.308Z,93.17
2018-01-24T08:16:26.614Z,93.55
2018-01-24T08:17:37.864Z,93.65
2018-01-24T08:18:48.015Z,93.08
2018-01-24T08:19:59.130Z,93.37
2018-01-24T08:21:09.344Z,92.98
2018-01-24T08:22:19.566Z,93.08
2018-01-24T08:23:29.495Z,92.79
2018-01-24T08:24:39.633Z,92.79
2018-01-24T08:25:49.783Z,92.98
2018-01-24T08:26:59.954Z,92.69
2018-01-24T08:28:10.175Z,92.69
2018-01-24T08:29:20.304Z,92.79
2018-01-24T08:30:30.483Z,92.41
2018-01-24T08:31:40.718Z,92.69
2018-01-24T08:32:50.843Z,92.22
2018-01-24T08:34:00.983Z,91.98
2018-01-24T08:35:11.148Z,91.13
2018-01-24T08:36:21.299Z,90.59
2018-01-24T08:37:31.518Z,90.59
2018-01-24T08:38:41.660Z,89.88
2018-01-24T08:39:52.923Z,89.78
2018-01-24T08:41:03.140Z,89.4
2018-01-24T08:42:13.341Z,88.83
2018-01-24T08:43:23.558Z,88.2
2018-01-24T08:44:40.230Z,88.01
2018-01-24T08:45:50.401Z,87.01
2018-01-24T08:47:00.565Z,86.63
2018-01-24T08:48:10.697Z,85.58
2018-01-24T08:49:20.447Z,85.52
2018-01-24T08:50:30.566Z,85.62
2018-01-24T08:51:40.440Z,85.71
2018-01-24T08:52:51.716Z,85.18
2018-01-24T08:54:02.023Z,84.23
2018-01-24T08:55:12.219Z,83.27
2018-01-24T08:56:23.317Z,83.37
2018-01-24T08:57:33.622Z,83.56
2018-01-24T08:58:43.483Z,82.7
2018-01-24T08:59:53.675Z,82.22
2018-01-24T09:01:03.829Z,82.7
2018-01-24T09:02:14.039Z,82.6
2018-01-24T09:03:24.213Z,82.51
2018-01-24T09:04:34.507Z,82.6
2018-01-24T09:05:44.785Z,82.31
2018-01-24T09:06:54.917Z,82.22
2018-01-24T09:08:05.126Z,82.22
2018-01-24T09:09:15.334Z,82.28
2018-01-24T09:10:25.536Z,82.28
2018-01-24T09:11:35.761Z,82.46
2018-01-24T09:12:45.987Z,82.65
2018-01-24T09:13:56.217Z,82.65
2018-01-24T09:15:07.455Z,82.65
2018-01-24T09:16:17.625Z,82.37
2018-01-24T09:17:27.849Z,82.46
2018-01-24T09:18:37.779Z,82.46
2018-01-24T09:19:48.912Z,82.28
2018-01-24T09:20:59.065Z,82.08
2018-01-24T09:22:09.193Z,82.37
2018-01-24T09:23:19.425Z,82.03
2018-01-24T09:24:29.675Z,81.93
2018-01-24T09:25:39.833Z,81.65
2018-01-24T09:26:49.990Z,81.36
2018-01-24T09:28:00.118Z,81.07
2018-01-24T09:29:10.221Z,80.98
2018-01-24T09:30:20.394Z,80.59
2018-01-24T09:31:30.597Z,80.79
2018-01-24T09:32:40.766Z,80.4
2018-01-24T09:33:50.987Z,80.69
2018-01-24T09:35:01.180Z,80.4
2018-01-24T09:36:11.404Z,80.88
2018-01-24T09:37:21.616Z,81.16
2018-01-24T09:38:31.826Z,80.93
2018-01-24T09:39:41.714Z,80.84
2018-01-24T09:40:51.882Z,81.41
2018-01-24T09:42:01.998Z,81.56
2018-01-24T09:43:12.245Z,81.85
2018-01-24T09:44:22.430Z,82
2018-01-24T09:45:32.204Z,82.67
2018-01-24T09:46:42.097Z,83.14
2018-01-24T09:47:52.258Z,82.82
2018-01-24T09:49:02.381Z,83.2
2018-01-24T09:50:12.511Z,83.48
2018-01-24T09:51:23.598Z,83.67
2018-01-24T09:52:33.742Z,84.06
2018-01-24T09:53:43.883Z,83.96
2018-01-24T09:54:54.006Z,83.87
2018-01-24T09:56:04.226Z,84.39
2018-01-24T09:57:14.445Z,84.39
2018-01-24T09:58:24.639Z,84.48
2018-01-24T09:59:35.073Z,84.48
2018-01-24T10:00:45.260Z,84.58
2018-01-24T10:01:55.404Z,84.58
2018-01-24T10:03:05.518Z,84.39
2018-01-24T10:04:15.669Z,84.67
2018-01-24T10:05:25.879Z,84.39
2018-01-24T10:06:36.118Z,84.2
2018-01-24T10:07:46.258Z,84.48
2018-01-24T10:08:57.387Z,84.48
2018-01-24T10:10:07.522Z,84.67
2018-01-24T10:11:17.689Z,84.29
2018-01-24T10:12:27.469Z,84.39
2018-01-24T10:13:37.659Z,84.39
2018-01-24T10:14:48.168Z,83.91
2018-01-24T10:15:58.360Z,83.76
2018-01-24T10:17:08.547Z,83.57
2018-01-24T10:18:18.705Z,83.86
2018-01-24T10:19:28.871Z,83.28
2018-01-24T10:20:39.014Z,83.57
2018-01-24T10:21:49.258Z,83.95
2018-01-24T10:22:59.385Z,83.67
2018-01-24T10:24:09.595Z,83.47
2018-01-24T10:25:19.729Z,83.47
2018-01-24T10:26:29.929Z,83.67
2018-01-24T10:27:39.871Z,83.86
2018-01-24T10:28:50.026Z,83.76
2018-01-24T10:30:00.193Z,83.47
2018-01-24T10:31:10.107Z,83.47
2018-01-24T10:32:20.253Z,83.57
2018-01-24T10:33:30.398Z,83.38
2018-01-24T10:34:40.601Z,83.33
2018-01-24T10:35:50.814Z,83.33
2018-01-24T10:37:01.050Z,83.7
2018-01-24T10:38:11.212Z,83.04
2018-01-24T10:39:21.402Z,83.13
2018-01-24T10:40:31.630Z,82.84
2018-01-24T10:41:41.875Z,82.65
2018-01-24T10:42:52.104Z,82.31
2018-01-24T10:44:02.346Z,82.41
2018-01-24T10:45:12.639Z,82.31
2018-01-24T10:46:23.097Z,81.65
2018-01-24T10:47:33.264Z,81.36
2018-01-24T10:48:43.387Z,81.26
2018-01-24T10:49:53.549Z,81.36
2018-01-24T10:51:03.697Z,81.26
2018-01-24T10:52:13.886Z,81.07
2018-01-24T10:53:24.095Z,81.07
2018-01-24T10:54:34.365Z,81.21
2018-01-24T10:55:44.537Z,80.73
2018-01-24T10:56:54.809Z,80.35
2018-01-24T10:58:05.063Z,80.16
2018-01-24T10:59:15.185Z,80.16
2018-01-24T11:00:25.397Z,79.87
2018-01-24T11:01:35.723Z,80.16
2018-01-24T11:02:45.877Z,80.06
2018-01-24T11:03:56.063Z,80.06
2018-01-24T11:05:06.276Z,79.1
2018-01-24T11:06:16.457Z,79.68
2018-01-24T11:07:26.803Z,79.77
2018-01-24T11:08:37.038Z,79.49
2018-01-24T11:09:47.191Z,79.2
2018-01-24T11:10:57.364Z,79.39
2018-01-24T11:12:07.618Z,79
2018-01-24T11:13:17.830Z,79.29
2018-01-24T11:14:28.080Z,79.49
2018-01-24T11:15:38.402Z,79.33
2018-01-24T11:16:48.581Z,78.86
2018-01-24T11:18:00.369Z,78.86
2018-01-24T11:19:10.245Z,78.57
2018-01-24T11:20:20.433Z,77.8
2018-01-24T11:21:30.621Z,77.8
2018-01-24T11:22:40.791Z,77.7
2018-01-24T11:23:50.953Z,77.7
2018-01-24T11:25:01.175Z,78.19
2018-01-24T11:26:11.348Z,77.42
2018-01-24T11:27:21.538Z,77.51
2018-01-24T11:28:31.697Z,77.9
2018-01-24T11:29:41.940Z,77.36
2018-01-24T11:30:52.179Z,76.98
2018-01-24T11:32:02.504Z,76.31
2018-01-24T11:33:12.674Z,75.7
2018-01-24T11:34:22.873Z,76.08
2018-01-24T11:35:33.110Z,76.84
2018-01-24T11:36:43.325Z,77.04
2018-01-24T11:37:53.581Z,77.13
2018-01-24T11:39:03.753Z,77.28
2018-01-24T11:40:13.904Z,77.86
2018-01-24T11:41:24.166Z,78.2
2018-01-24T11:42:34.328Z,78.2
2018-01-24T11:43:44.496Z,78.87
2018-01-24T11:44:54.636Z,79.16
2018-01-24T11:46:04.784Z,79.44
2018-01-24T11:47:14.926Z,79.6
2018-01-24T11:48:25.064Z,80.17
2018-01-24T11:49:35.247Z,79.93
2018-01-24T11:50:45.471Z,80.4
2018-01-24T11:51:55.647Z,80.69
2018-01-24T11:53:05.876Z,80.59
2018-01-24T11:54:16.133Z,80.3
2018-01-24T11:55:26.341Z,80.98
2018-01-24T11:56:36.503Z,80.36
2018-01-24T11:57:46.369Z,80.27
2018-01-24T11:58:56.610Z,80.65
2018-01-24T12:00:06.847Z,80.74
2018-01-24T12:01:17.065Z,80.27
2018-01-24T12:02:27.249Z,80.74
2018-01-24T12:03:37.458Z,80.55
2018-01-24T12:04:47.611Z,80.8
2018-01-24T12:05:57.984Z,81.47
2018-01-24T12:07:08.175Z,81.56
2018-01-24T12:08:18.453Z,81.85
2018-01-24T12:09:28.596Z,81.76
2018-01-24T12:10:38.913Z,81.66
2018-01-24T12:11:48.788Z,82.52
2018-01-24T12:12:58.925Z,82.14
2018-01-24T12:14:08.796Z,82.04
2018-01-24T12:15:18.918Z,82.32
2018-01-24T12:16:29.101Z,82.32
2018-01-24T12:17:39.281Z,82.52
2018-01-24T12:18:49.495Z,82.61
2018-01-24T12:19:59.647Z,82.23
2018-01-24T12:21:09.823Z,82.23
2018-01-24T12:22:19.989Z,82.32
2018-01-24T12:23:30.128Z,82.52
2018-01-24T12:24:40.416Z,82.52
2018-01-24T12:25:50.620Z,82.23
2018-01-24T12:27:00.783Z,82.32
2018-01-24T12:28:10.928Z,82.52
2018-01-24T12:29:21.116Z,82.42
2018-01-24T12:30:31.256Z,82.81
2018-01-24T12:31:41.391Z,82.42
2018-01-24T12:32:51.587Z,82.71
2018-01-24T12:34:01.749Z,83.09
2018-01-24T12:35:11.994Z,83.09
2018-01-24T12:36:22.240Z,83.28
2018-01-24T12:37:32.394Z,82.9
2018-01-24T12:38:42.634Z,82.81
2018-01-24T12:39:52.813Z,83.28
2018-01-24T12:41:02.963Z,82.81
2018-01-24T12:42:13.153Z,83.28
2018-01-24T12:43:23.285Z,83.09
2018-01-24T12:44:33.418Z,82.9
2018-01-24T12:45:43.595Z,83.38
2018-01-24T12:46:53.749Z,82.71
2018-01-24T12:48:03.942Z,83.28
2018-01-24T12:49:14.111Z,83
2018-01-24T12:50:24.287Z,83.67
2018-01-24T12:51:34.453Z,83.47
2018-01-24T12:52:44.568Z,83.47
2018-01-24T12:53:54.708Z,83.76
2018-01-24T12:55:04.912Z,83.95
2018-01-24T12:56:15.114Z,83.38
2018-01-24T12:57:25.269Z,83.34
2018-01-24T12:58:35.480Z,83.38
2018-01-24T12:59:45.675Z,83.38
2018-01-24T13:00:55.895Z,83.86
2018-01-24T13:02:06.142Z,83.95
2018-01-24T13:03:16.312Z,83.18
2018-01-24T13:04:26.550Z,83.09
2018-01-24T13:05:36.756Z,83.38
2018-01-24T13:06:46.911Z,83.28
2018-01-24T13:07:57.104Z,83.09
2018-01-24T13:09:07.098Z,83.28
2018-01-24T13:10:17.262Z,82.81
2018-01-24T13:11:27.418Z,83.28
2018-01-24T13:12:37.713Z,83.09
2018-01-24T13:13:47.877Z,82.52
2018-01-24T13:14:58.031Z,83.18
2018-01-24T13:16:08.181Z,83.18
2018-01-24T13:17:18.511Z,83.38
2018-01-24T13:18:28.809Z,82.9
2018-01-24T13:19:39.074Z,83.67
2018-01-24T13:20:49.281Z,83.38
2018-01-24T13:21:59.489Z,83.28
2018-01-24T13:23:09.679Z,83.09
2018-01-24T13:24:19.864Z,83.18
2018-01-24T13:25:30.000Z,83.76
2018-01-24T13:26:40.146Z,83.38
2018-01-24T13:27:50.425Z,83.57
2018-01-24T13:29:00.623Z,83.95
2018-01-24T13:30:10.793Z,83.86
2018-01-24T13:31:20.948Z,83.81
2018-01-24T13:32:31.118Z,83.95
2018-01-24T13:33:41.294Z,83.95
2018-01-24T13:34:51.471Z,83.81
2018-01-24T13:36:01.336Z,83.72
2018-01-24T13:37:11.522Z,84.52
2018-01-24T13:38:21.782Z,84.39
2018-01-24T13:39:31.911Z,84.1
2018-01-24T13:40:42.105Z,84
2018-01-24T13:41:52.269Z,84.29
2018-01-24T13:43:02.540Z,84.39
2018-01-24T13:44:12.675Z,84.48
2018-01-24T13:45:22.875Z,84.2
2018-01-24T13:46:33.127Z,84.58
2018-01-24T13:47:43.438Z,84.58
2018-01-24T13:48:53.647Z,84.67
2018-01-24T13:50:03.774Z,84.67
2018-01-24T13:51:14.018Z,84.39
2018-01-24T13:52:24.243Z,84.67
2018-01-24T13:53:34.441Z,84.39
2018-01-24T13:54:44.600Z,84.58
2018-01-24T13:55:54.788Z,84.39
2018-01-24T13:57:04.954Z,84.39
2018-01-24T13:58:15.429Z,84.67
2018-01-24T13:59:25.624Z,84.86
2018-01-24T14:00:35.762Z,84.86
2018-01-24T14:01:45.962Z,85.05
2018-01-24T14:02:56.179Z,85.25
2018-01-24T14:04:06.193Z,85.05
2018-01-24T14:05:16.341Z,85.44
2018-01-24T14:06:26.491Z,85.53
2018-01-24T14:07:36.634Z,85.34
2018-01-24T14:08:46.905Z,85.63
2018-01-24T14:09:57.138Z,85.91
2018-01-24T14:11:07.319Z,86.25
2018-01-24T14:12:17.118Z,86.2
2018-01-24T14:13:27.316Z,86.54
2018-01-24T14:14:37.556Z,86.58
2018-01-24T14:15:47.751Z,86.25
2018-01-24T14:16:57.991Z,86.73
2018-01-24T14:18:08.170Z,86.73
2018-01-24T14:19:18.309Z,86.73
2018-01-24T14:20:28.565Z,86.92
2018-01-24T14:21:38.786Z,87.02
2018-01-24T14:22:49.104Z,87.02
2018-01-24T14:23:59.284Z,86.92
2018-01-24T14:25:09.519Z,87.21
2018-01-24T14:26:19.899Z,87.21
2018-01-24T14:27:30.062Z,87.3
2018-01-24T14:28:40.256Z,87.78
2018-01-24T14:29:50.499Z,87.3
2018-01-24T14:31:00.642Z,87.68
2018-01-24T14:32:10.839Z,87.49
2018-01-24T14:33:21.045Z,87.49
2018-01-24T14:34:31.243Z,87.68
2018-01-24T14:35:41.550Z,87.78
2018-01-24T14:36:51.783Z,87.3
2018-01-24T14:38:01.981Z,87.97
2018-01-24T14:39:12.181Z,87.68
2018-01-24T14:40:22.350Z,88.16
2018-01-24T14:41:32.524Z,88.16
2018-01-24T14:42:42.678Z,88.07
2018-01-24T14:43:52.974Z,88.07
2018-01-24T14:45:03.248Z,87.97
2018-01-24T14:46:13.552Z,88.07
2018-01-24T14:47:23.739Z,87.87
2018-01-24T14:48:33.930Z,87.78
2018-01-24T14:49:44.111Z,88.16
2018-01-24T14:50:54.282Z,88.16
2018-01-24T14:52:04.489Z,88.16
2018-01-24T14:53:14.680Z,88.35
2018-01-24T14:54:24.968Z,88.26
2018-01-24T14:55:35.273Z,88.07
2018-01-24T14:56:45.552Z,88.16
2018-01-24T14:57:55.751Z,88.45
2018-01-24T14:59:06.090Z,88.26
2018-01-24T15:00:16.265Z,88.26
2018-01-24T15:01:26.396Z,88.07
2018-01-24T15:02:36.559Z,88.21
2018-01-24T15:03:46.782Z,88.35
2018-01-24T15:04:56.696Z,88.54
2018-01-24T15:06:06.811Z,88.59
2018-01-24T15:07:16.972Z,88.5